sensor_id;sensor_type;location;lat;lon;timestamp;pressure;altitude;pressure_sealevel;temperature;humidity
78149;BME280;67396;42.664;23.382;2023-04-25T00:00:57;94228.38;;;10.77;80.49
78149;BME280;67396;42.664;23.382;2023-04-25T00:03:22;94216.47;;;10.98;78.80
78149;BME280;67396;42.664;23.382;2023-04-25T00:05:50;94215.22;;;11.06;77.51
78149;BME280;67396;42.664;23.382;2023-04-25T00:08:17;94209.34;;;11.01;77.43
78149;BME280;67396;42.664;23.382;2023-04-25T00:10:42;94205.09;;;10.96;78.49
78149;BME280;67396;42.664;23.382;2023-04-25T00:13:08;94205.66;;;11.18;77.23
78149;BME280;67396;42.664;23.382;2023-04-25T00:15:33;94193.41;;;11.26;76.22
78149;BME280;67396;42.664;23.382;2023-04-25T00:18:01;94184.00;;;11.27;75.44
78149;BME280;67396;42.664;23.382;2023-04-25T00:20:26;94182.44;;;11.26;75.18
78149;BME280;67396;42.664;23.382;2023-04-25T00:22:52;94181.69;;;11.25;75.42
78149;BME280;67396;42.664;23.382;2023-04-25T00:25:20;94168.69;;;11.26;75.71
78149;BME280;67396;42.664;23.382;2023-04-25T00:27:46;94161.41;;;11.09;76.53
78149;BME280;67396;42.664;23.382;2023-04-25T00:30:12;94161.75;;;10.73;78.01
78149;BME280;67396;42.664;23.382;2023-04-25T00:32:37;94158.63;;;10.71;78.34
78149;BME280;67396;42.664;23.382;2023-04-25T00:35:03;94159.81;;;10.70;78.24
78149;BME280;67396;42.664;23.382;2023-04-25T00:37:29;94157.78;;;10.78;78.32
78149;BME280;67396;42.664;23.382;2023-04-25T00:39:54;94153.47;;;10.80;77.94
78149;BME280;67396;42.664;23.382;2023-04-25T00:42:21;94154.16;;;10.43;78.67
78149;BME280;67396;42.664;23.382;2023-04-25T00:44:47;94153.03;;;10.34;78.97
78149;BME280;67396;42.664;23.382;2023-04-25T00:47:13;94145.06;;;10.50;78.54
78149;BME280;67396;42.664;23.382;2023-04-25T00:49:38;94135.28;;;10.49;78.35
78149;BME280;67396;42.664;23.382;2023-04-25T00:52:04;94136.38;;;10.62;77.39
78149;BME280;67396;42.664;23.382;2023-04-25T00:54:30;94135.06;;;10.77;77.62
78149;BME280;67396;42.664;23.382;2023-04-25T00:56:56;94128.75;;;10.80;76.47
78149;BME280;67396;42.664;23.382;2023-04-25T00:59:21;94133.38;;;10.90;76.44
78149;BME280;67396;42.664;23.382;2023-04-25T01:01:47;94133.31;;;10.98;76.42
78149;BME280;67396;42.664;23.382;2023-04-25T01:04:13;94132.91;;;10.96;75.85
78149;BME280;67396;42.664;23.382;2023-04-25T01:06:38;94134.09;;;10.98;76.07
78149;BME280;67396;42.664;23.382;2023-04-25T01:09:05;94140.41;;;10.91;75.76
78149;BME280;67396;42.664;23.382;2023-04-25T01:11:30;94130.88;;;11.03;74.00
78149;BME280;67396;42.664;23.382;2023-04-25T01:13:56;94127.66;;;11.12;73.79
78149;BME280;67396;42.664;23.382;2023-04-25T01:16:22;94118.38;;;10.99;75.63
78149;BME280;67396;42.664;23.382;2023-04-25T01:18:49;94115.34;;;10.89;77.78
78149;BME280;67396;42.664;23.382;2023-04-25T01:21:16;94108.28;;;10.88;77.81
78149;BME280;67396;42.664;23.382;2023-04-25T01:23:42;94121.38;;;11.11;76.27
78149;BME280;67396;42.664;23.382;2023-04-25T01:26:09;94112.56;;;11.27;75.71
78149;BME280;67396;42.664;23.382;2023-04-25T01:28:35;94112.50;;;11.34;75.18
78149;BME280;67396;42.664;23.382;2023-04-25T01:31:01;94104.63;;;11.36;75.30
78149;BME280;67396;42.664;23.382;2023-04-25T01:33:27;94107.38;;;11.36;75.08
78149;BME280;67396;42.664;23.382;2023-04-25T01:35:53;94099.59;;;11.31;75.44
78149;BME280;67396;42.664;23.382;2023-04-25T01:38:18;94099.13;;;11.36;75.48
78149;BME280;67396;42.664;23.382;2023-04-25T01:40:45;94112.50;;;11.34;75.42
78149;BME280;67396;42.664;23.382;2023-04-25T01:43:12;94115.53;;;11.43;75.41
78149;BME280;67396;42.664;23.382;2023-04-25T01:45:40;94113.22;;;11.38;75.57
78149;BME280;67396;42.664;23.382;2023-04-25T01:48:07;94108.53;;;11.39;75.59
78149;BME280;67396;42.664;23.382;2023-04-25T01:50:33;94112.38;;;11.45;75.07
78149;BME280;67396;42.664;23.382;2023-04-25T01:52:58;94112.34;;;11.14;76.32
78149;BME280;67396;42.664;23.382;2023-04-25T01:55:24;94119.09;;;11.06;76.78
78149;BME280;67396;42.664;23.382;2023-04-25T01:57:49;94116.75;;;11.05;76.82
78149;BME280;67396;42.664;23.382;2023-04-25T02:00:15;94124.47;;;11.17;75.91
78149;BME280;67396;42.664;23.382;2023-04-25T02:02:41;94116.59;;;11.19;75.56
78149;BME280;67396;42.664;23.382;2023-04-25T02:05:07;94113.44;;;11.20;75.89
78149;BME280;67396;42.664;23.382;2023-04-25T02:07:32;94118.69;;;11.08;76.71
78149;BME280;67396;42.664;23.382;2023-04-25T02:09:57;94111.66;;;11.03;76.44
78149;BME280;67396;42.664;23.382;2023-04-25T02:12:23;94114.38;;;11.07;76.60
78149;BME280;67396;42.664;23.382;2023-04-25T02:14:49;94119.44;;;11.08;76.58
78149;BME280;67396;42.664;23.382;2023-04-25T02:17:15;94105.72;;;11.08;76.57
78149;BME280;67396;42.664;23.382;2023-04-25T02:19:41;94100.81;;;11.26;75.66
78149;BME280;67396;42.664;23.382;2023-04-25T02:22:06;94097.72;;;11.24;75.39
78149;BME280;67396;42.664;23.382;2023-04-25T02:24:32;94095.66;;;11.32;75.06
78149;BME280;67396;42.664;23.382;2023-04-25T02:26:58;94094.88;;;11.31;74.84
78149;BME280;67396;42.664;23.382;2023-04-25T02:29:24;94082.28;;;11.34;76.07
78149;BME280;67396;42.664;23.382;2023-04-25T02:31:49;94079.56;;;11.30;75.51
78149;BME280;67396;42.664;23.382;2023-04-25T02:34:15;94074.06;;;11.34;75.36
78149;BME280;67396;42.664;23.382;2023-04-25T02:36:40;94083.94;;;11.58;77.58
78149;BME280;67396;42.664;23.382;2023-04-25T02:39:06;94077.75;;;11.81;75.23
78149;BME280;67396;42.664;23.382;2023-04-25T02:41:36;94080.00;;;11.59;73.90
78149;BME280;67396;42.664;23.382;2023-04-25T02:44:05;94074.88;;;11.92;73.10
78149;BME280;67396;42.664;23.382;2023-04-25T02:46:31;94067.84;;;12.14;72.83
78149;BME280;67396;42.664;23.382;2023-04-25T02:48:56;94072.91;;;12.19;70.01
78149;BME280;67396;42.664;23.382;2023-04-25T02:51:22;94079.53;;;11.64;71.79
78149;BME280;67396;42.664;23.382;2023-04-25T02:53:47;94066.81;;;11.47;72.76
78149;BME280;67396;42.664;23.382;2023-04-25T02:56:13;94064.53;;;11.42;73.35
78149;BME280;67396;42.664;23.382;2023-04-25T02:58:38;94061.19;;;11.58;73.00
78149;BME280;67396;42.664;23.382;2023-04-25T03:01:04;94071.28;;;11.64;72.55
78149;BME280;67396;42.664;23.382;2023-04-25T03:03:29;94061.81;;;11.69;72.46
78149;BME280;67396;42.664;23.382;2023-04-25T03:05:55;94073.53;;;11.73;71.55
78149;BME280;67396;42.664;23.382;2023-04-25T03:08:21;94065.69;;;11.72;71.61
78149;BME280;67396;42.664;23.382;2023-04-25T03:10:46;94070.47;;;11.67;71.77
78149;BME280;67396;42.664;23.382;2023-04-25T03:13:46;94062.78;;;11.55;72.84
78149;BME280;67396;42.664;23.382;2023-04-25T03:16:25;94057.84;;;11.43;73.02
78149;BME280;67396;42.664;23.382;2023-04-25T03:18:51;94054.22;;;11.50;72.27
78149;BME280;67396;42.664;23.382;2023-04-25T03:23:46;94063.78;;;11.38;72.72
78149;BME280;67396;42.664;23.382;2023-04-25T03:26:11;94058.28;;;11.38;72.85
78149;BME280;67396;42.664;23.382;2023-04-25T03:28:37;94068.63;;;11.27;73.16
78149;BME280;67396;42.664;23.382;2023-04-25T03:31:02;94063.06;;;11.34;72.41
78149;BME280;67396;42.664;23.382;2023-04-25T03:33:27;94061.41;;;11.40;72.50
78149;BME280;67396;42.664;23.382;2023-04-25T03:35:53;94052.38;;;11.40;72.71
78149;BME280;67396;42.664;23.382;2023-04-25T03:38:18;94060.66;;;11.36;72.72
78149;BME280;67396;42.664;23.382;2023-04-25T03:40:51;94048.94;;;11.32;72.80
78149;BME280;67396;42.664;23.382;2023-04-25T03:43:17;94054.38;;;11.36;73.05
78149;BME280;67396;42.664;23.382;2023-04-25T03:45:42;94063.38;;;11.40;72.85
78149;BME280;67396;42.664;23.382;2023-04-25T03:48:08;94056.28;;;11.42;72.95
78149;BME280;67396;42.664;23.382;2023-04-25T03:50:34;94053.16;;;11.40;72.86
78149;BME280;67396;42.664;23.382;2023-04-25T03:52:59;94051.91;;;11.45;72.59
78149;BME280;67396;42.664;23.382;2023-04-25T03:55:25;94063.06;;;11.34;73.09
78149;BME280;67396;42.664;23.382;2023-04-25T03:57:50;94059.16;;;11.31;74.37
78149;BME280;67396;42.664;23.382;2023-04-25T04:00:22;94049.72;;;11.32;73.62
78149;BME280;67396;42.664;23.382;2023-04-25T04:02:55;94054.66;;;11.45;73.51
78149;BME280;67396;42.664;23.382;2023-04-25T04:05:26;94056.31;;;11.69;72.07
78149;BME280;67396;42.664;23.382;2023-04-25T04:10:56;94063.25;;;11.81;72.22
78149;BME280;67396;42.664;23.382;2023-04-25T04:13:21;94074.75;;;11.99;71.25
78149;BME280;67396;42.664;23.382;2023-04-25T04:15:47;94067.59;;;12.05;70.17
78149;BME280;67396;42.664;23.382;2023-04-25T04:18:13;94076.94;;;12.11;71.44
78149;BME280;67396;42.664;23.382;2023-04-25T04:23:09;94070.53;;;11.94;70.87
78149;BME280;67396;42.664;23.382;2023-04-25T04:28:14;94062.53;;;11.77;72.64
78149;BME280;67396;42.664;23.382;2023-04-25T04:33:26;94077.25;;;11.90;70.10
78149;BME280;67396;42.664;23.382;2023-04-25T04:35:52;94075.00;;;11.81;70.43
78149;BME280;67396;42.664;23.382;2023-04-25T04:38:18;94074.13;;;11.88;70.07
78149;BME280;67396;42.664;23.382;2023-04-25T04:40:44;94060.97;;;11.72;70.81
78149;BME280;67396;42.664;23.382;2023-04-25T04:43:10;94069.41;;;11.58;71.68
78149;BME280;67396;42.664;23.382;2023-04-25T04:45:36;94062.00;;;11.55;71.21
78149;BME280;67396;42.664;23.382;2023-04-25T04:48:06;94063.66;;;11.49;70.30
78149;BME280;67396;42.664;23.382;2023-04-25T04:53:26;94066.84;;;11.44;71.88
78149;BME280;67396;42.664;23.382;2023-04-25T04:55:56;94073.84;;;11.48;71.32
78149;BME280;67396;42.664;23.382;2023-04-25T04:58:31;94082.38;;;11.57;71.10
78149;BME280;67396;42.664;23.382;2023-04-25T05:00:56;94082.81;;;11.52;71.95
78149;BME280;67396;42.664;23.382;2023-04-25T05:03:22;94084.59;;;11.36;73.35
78149;BME280;67396;42.664;23.382;2023-04-25T05:05:47;94086.44;;;11.15;75.42
78149;BME280;67396;42.664;23.382;2023-04-25T05:08:13;94085.66;;;11.15;74.48
78149;BME280;67396;42.664;23.382;2023-04-25T05:10:41;94088.22;;;11.29;73.48
78149;BME280;67396;42.664;23.382;2023-04-25T05:13:07;94085.78;;;11.35;72.87
78149;BME280;67396;42.664;23.382;2023-04-25T05:15:32;94092.16;;;11.28;74.62
78149;BME280;67396;42.664;23.382;2023-04-25T05:17:57;94099.38;;;11.15;75.76
78149;BME280;67396;42.664;23.382;2023-04-25T05:20:35;94090.38;;;11.11;75.51
78149;BME280;67396;42.664;23.382;2023-04-25T05:23:01;94104.50;;;11.13;75.99
78149;BME280;67396;42.664;23.382;2023-04-25T05:25:27;94100.06;;;10.85;77.08
78149;BME280;67396;42.664;23.382;2023-04-25T05:27:53;94101.81;;;10.68;79.02
78149;BME280;67396;42.664;23.382;2023-04-25T05:30:18;94089.97;;;10.75;79.52
78149;BME280;67396;42.664;23.382;2023-04-25T05:32:44;94092.06;;;11.01;77.30
78149;BME280;67396;42.664;23.382;2023-04-25T05:35:09;94092.31;;;11.14;75.15
78149;BME280;67396;42.664;23.382;2023-04-25T05:37:38;94084.47;;;11.16;75.76
78149;BME280;67396;42.664;23.382;2023-04-25T05:40:11;94093.88;;;11.15;75.40
78149;BME280;67396;42.664;23.382;2023-04-25T05:42:36;94092.25;;;11.21;74.99
78149;BME280;67396;42.664;23.382;2023-04-25T05:45:02;94093.63;;;11.36;82.44
78149;BME280;67396;42.664;23.382;2023-04-25T05:47:28;94104.88;;;11.79;75.08
78149;BME280;67396;42.664;23.382;2023-04-25T05:49:56;94104.09;;;12.09;75.57
78149;BME280;67396;42.664;23.382;2023-04-25T05:52:21;94096.78;;;12.49;71.71
78149;BME280;67396;42.664;23.382;2023-04-25T05:54:47;94105.91;;;12.69;72.80
78149;BME280;67396;42.664;23.382;2023-04-25T05:57:23;94108.34;;;13.10;71.07
78149;BME280;67396;42.664;23.382;2023-04-25T05:59:59;94104.94;;;13.26;68.80
78149;BME280;67396;42.664;23.382;2023-04-25T06:02:44;94103.88;;;13.40;66.33
78149;BME280;67396;42.664;23.382;2023-04-25T06:05:17;94098.16;;;13.07;66.18
78149;BME280;67396;42.664;23.382;2023-04-25T06:07:46;94092.66;;;13.07;65.94
78149;BME280;67396;42.664;23.382;2023-04-25T06:10:21;94098.06;;;12.91;65.63
78149;BME280;67396;42.664;23.382;2023-04-25T06:12:48;94101.78;;;12.81;66.85
78149;BME280;67396;42.664;23.382;2023-04-25T06:15:19;94103.47;;;12.75;66.42
78149;BME280;67396;42.664;23.382;2023-04-25T06:17:47;94092.63;;;12.64;66.02
78149;BME280;67396;42.664;23.382;2023-04-25T06:20:32;94096.63;;;12.60;66.66
78149;BME280;67396;42.664;23.382;2023-04-25T06:23:06;94100.38;;;12.46;68.03
78149;BME280;67396;42.664;23.382;2023-04-25T06:25:32;94094.03;;;12.49;67.76
78149;BME280;67396;42.664;23.382;2023-04-25T06:28:00;94110.22;;;12.47;67.28
78149;BME280;67396;42.664;23.382;2023-04-25T06:30:26;94096.84;;;12.46;67.08
78149;BME280;67396;42.664;23.382;2023-04-25T06:33:03;94112.59;;;12.45;67.68
78149;BME280;67396;42.664;23.382;2023-04-25T06:35:28;94114.28;;;12.39;68.43
78149;BME280;67396;42.664;23.382;2023-04-25T06:38:16;94110.91;;;12.51;68.36
78149;BME280;67396;42.664;23.382;2023-04-25T06:43:20;94107.91;;;12.42;66.81
78149;BME280;67396;42.664;23.382;2023-04-25T06:45:59;94111.03;;;12.67;65.17
78149;BME280;67396;42.664;23.382;2023-04-25T06:48:42;94112.06;;;12.77;65.58
78149;BME280;67396;42.664;23.382;2023-04-25T06:51:07;94116.00;;;12.76;64.81
78149;BME280;67396;42.664;23.382;2023-04-25T06:53:43;94124.16;;;12.60;65.78
78149;BME280;67396;42.664;23.382;2023-04-25T06:56:17;94120.84;;;12.68;64.94
78149;BME280;67396;42.664;23.382;2023-04-25T06:58:55;94108.13;;;12.78;63.65
78149;BME280;67396;42.664;23.382;2023-04-25T07:01:46;94116.50;;;12.71;64.44
78149;BME280;67396;42.664;23.382;2023-04-25T07:04:37;94115.66;;;12.74;63.75
78149;BME280;67396;42.664;23.382;2023-04-25T07:07:25;94117.22;;;12.75;64.12
78149;BME280;67396;42.664;23.382;2023-04-25T07:10:29;94111.84;;;12.91;63.39
78149;BME280;67396;42.664;23.382;2023-04-25T07:16:00;94111.84;;;12.91;62.75
78149;BME280;67396;42.664;23.382;2023-04-25T07:18:26;94106.19;;;12.98;62.48
78149;BME280;67396;42.664;23.382;2023-04-25T07:20:59;94112.31;;;13.09;62.81
78149;BME280;67396;42.664;23.382;2023-04-25T07:23:38;94107.03;;;13.18;62.54
78149;BME280;67396;42.664;23.382;2023-04-25T07:26:15;94101.41;;;13.26;62.75
78149;BME280;67396;42.664;23.382;2023-04-25T07:28:54;94111.06;;;13.14;64.38
78149;BME280;67396;42.664;23.382;2023-04-25T07:31:32;94102.94;;;13.03;65.35
78149;BME280;67396;42.664;23.382;2023-04-25T07:34:13;94108.16;;;13.21;64.21
78149;BME280;67396;42.664;23.382;2023-04-25T07:37:13;94107.63;;;13.49;62.48
78149;BME280;67396;42.664;23.382;2023-04-25T07:39:56;94102.72;;;13.57;61.88
78149;BME280;67396;42.664;23.382;2023-04-25T07:43:00;94104.16;;;13.65;61.37
78149;BME280;67396;42.664;23.382;2023-04-25T07:45:53;94097.06;;;13.64;61.63
78149;BME280;67396;42.664;23.382;2023-04-25T07:48:21;94099.34;;;13.69;61.41
78149;BME280;67396;42.664;23.382;2023-04-25T07:50:58;94090.19;;;13.72;60.94
78149;BME280;67396;42.664;23.382;2023-04-25T07:53:23;94091.00;;;13.53;60.89
78149;BME280;67396;42.664;23.382;2023-04-25T07:55:50;94087.59;;;13.65;61.22
78149;BME280;67396;42.664;23.382;2023-04-25T07:58:18;94092.06;;;13.79;61.13
78149;BME280;67396;42.664;23.382;2023-04-25T08:00:47;94085.53;;;13.89;61.52
78149;BME280;67396;42.664;23.382;2023-04-25T08:03:13;94087.16;;;13.86;61.27
78149;BME280;67396;42.664;23.382;2023-04-25T08:06:01;94082.47;;;13.83;61.66
78149;BME280;67396;42.664;23.382;2023-04-25T08:11:33;94076.34;;;14.12;60.97
78149;BME280;67396;42.664;23.382;2023-04-25T08:13:59;94084.50;;;14.51;61.76
78149;BME280;67396;42.664;23.382;2023-04-25T08:16:25;94084.34;;;14.75;62.49
78149;BME280;67396;42.664;23.382;2023-04-25T08:18:50;94081.50;;;15.23;57.94
78149;BME280;67396;42.664;23.382;2023-04-25T08:21:21;94080.94;;;15.44;57.05
78149;BME280;67396;42.664;23.382;2023-04-25T08:23:50;94075.59;;;15.66;57.29
78149;BME280;67396;42.664;23.382;2023-04-25T08:26:15;94080.72;;;15.52;55.57
78149;BME280;67396;42.664;23.382;2023-04-25T08:28:41;94067.16;;;15.57;55.34
78149;BME280;67396;42.664;23.382;2023-04-25T08:31:06;94065.50;;;15.60;55.30
78149;BME280;67396;42.664;23.382;2023-04-25T08:33:32;94059.19;;;15.59;54.50
78149;BME280;67396;42.664;23.382;2023-04-25T08:35:57;94058.53;;;15.55;54.85
78149;BME280;67396;42.664;23.382;2023-04-25T08:38:23;94058.00;;;15.60;55.12
78149;BME280;67396;42.664;23.382;2023-04-25T08:40:50;94067.28;;;15.54;55.53
78149;BME280;67396;42.664;23.382;2023-04-25T08:43:19;94052.59;;;15.40;56.58
78149;BME280;67396;42.664;23.382;2023-04-25T08:45:46;94067.53;;;15.14;58.08
78149;BME280;67396;42.664;23.382;2023-04-25T08:48:13;94075.97;;;15.23;57.70
78149;BME280;67396;42.664;23.382;2023-04-25T08:50:51;94081.19;;;15.05;59.32
78149;BME280;67396;42.664;23.382;2023-04-25T08:53:22;94079.34;;;15.15;58.08
78149;BME280;67396;42.664;23.382;2023-04-25T08:55:48;94073.97;;;14.79;60.95
78149;BME280;67396;42.664;23.382;2023-04-25T08:58:18;94078.72;;;14.78;62.07
78149;BME280;67396;42.664;23.382;2023-04-25T09:00:43;94085.72;;;14.83;61.96
78149;BME280;67396;42.664;23.382;2023-04-25T09:03:12;94089.06;;;15.06;64.15
78149;BME280;67396;42.664;23.382;2023-04-25T09:05:39;94070.63;;;15.16;62.98
78149;BME280;67396;42.664;23.382;2023-04-25T09:08:05;94061.56;;;15.16;60.88
78149;BME280;67396;42.664;23.382;2023-04-25T09:10:31;94057.53;;;15.04;61.03
78149;BME280;67396;42.664;23.382;2023-04-25T09:13:08;94054.53;;;15.27;60.52
78149;BME280;67396;42.664;23.382;2023-04-25T09:15:51;94059.38;;;15.23;61.21
78149;BME280;67396;42.664;23.382;2023-04-25T09:18:28;94056.16;;;15.12;60.99
78149;BME280;67396;42.664;23.382;2023-04-25T09:20:55;94052.63;;;15.24;59.78
78149;BME280;67396;42.664;23.382;2023-04-25T09:23:22;94049.47;;;15.55;57.99
78149;BME280;67396;42.664;23.382;2023-04-25T09:25:49;94051.34;;;15.58;58.24
78149;BME280;67396;42.664;23.382;2023-04-25T09:28:15;94044.06;;;15.64;58.18
78149;BME280;67396;42.664;23.382;2023-04-25T09:30:41;94043.94;;;15.67;56.63
78149;BME280;67396;42.664;23.382;2023-04-25T09:33:10;94044.34;;;15.24;57.01
78149;BME280;67396;42.664;23.382;2023-04-25T09:35:41;94045.09;;;15.12;58.06
78149;BME280;67396;42.664;23.382;2023-04-25T09:38:11;94042.44;;;14.92;58.42
78149;BME280;67396;42.664;23.382;2023-04-25T09:40:45;94045.84;;;14.84;59.32
78149;BME280;67396;42.664;23.382;2023-04-25T09:43:21;94040.81;;;14.95;60.69
78149;BME280;67396;42.664;23.382;2023-04-25T09:45:47;94045.25;;;15.05;61.39
78149;BME280;67396;42.664;23.382;2023-04-25T09:48:22;94035.09;;;15.02;59.58
78149;BME280;67396;42.664;23.382;2023-04-25T09:51:07;94043.25;;;14.77;60.53
78149;BME280;67396;42.664;23.382;2023-04-25T09:53:34;94030.22;;;14.77;59.63
78149;BME280;67396;42.664;23.382;2023-04-25T09:56:03;94032.47;;;14.66;60.52
78149;BME280;67396;42.664;23.382;2023-04-25T09:58:33;94033.75;;;14.78;60.27
78149;BME280;67396;42.664;23.382;2023-04-25T10:01:01;94034.94;;;14.93;60.27
78149;BME280;67396;42.664;23.382;2023-04-25T10:03:30;94029.81;;;15.07;58.99
78149;BME280;67396;42.664;23.382;2023-04-25T10:06:07;94039.94;;;14.98;59.62
78149;BME280;67396;42.664;23.382;2023-04-25T10:08:36;94048.38;;;15.07;56.98
78149;BME280;67396;42.664;23.382;2023-04-25T10:11:04;94036.66;;;15.03;57.63
78149;BME280;67396;42.664;23.382;2023-04-25T10:13:36;94040.81;;;14.95;57.34
78149;BME280;67396;42.664;23.382;2023-04-25T10:16:02;94035.44;;;14.88;58.27
78149;BME280;67396;42.664;23.382;2023-04-25T10:18:33;94032.59;;;14.91;57.81
78149;BME280;67396;42.664;23.382;2023-04-25T10:21:04;94023.38;;;14.82;58.33
78149;BME280;67396;42.664;23.382;2023-04-25T10:23:31;94038.94;;;14.76;59.49
78149;BME280;67396;42.664;23.382;2023-04-25T10:25:57;94044.50;;;14.59;60.37
78149;BME280;67396;42.664;23.382;2023-04-25T10:28:23;94049.31;;;14.55;62.22
78149;BME280;67396;42.664;23.382;2023-04-25T10:33:36;94036.44;;;14.32;65.50
78149;BME280;67396;42.664;23.382;2023-04-25T10:36:13;94030.50;;;14.50;62.18
78149;BME280;67396;42.664;23.382;2023-04-25T10:38:39;94034.22;;;14.60;62.15
78149;BME280;67396;42.664;23.382;2023-04-25T10:41:06;94030.34;;;14.57;61.15
78149;BME280;67396;42.664;23.382;2023-04-25T10:43:41;94022.44;;;14.72;59.73
78149;BME280;67396;42.664;23.382;2023-04-25T10:46:15;94024.44;;;14.72;59.11
78149;BME280;67396;42.664;23.382;2023-04-25T10:48:52;94045.88;;;14.67;60.75
78149;BME280;67396;42.664;23.382;2023-04-25T10:51:23;94054.13;;;14.51;62.48
78149;BME280;67396;42.664;23.382;2023-04-25T10:59:10;94044.44;;;14.27;57.85
78149;BME280;67396;42.664;23.382;2023-04-25T11:01:38;94042.81;;;14.13;58.63
78149;BME280;67396;42.664;23.382;2023-04-25T11:04:04;94039.09;;;14.20;57.37
78149;BME280;67396;42.664;23.382;2023-04-25T11:06:37;94031.78;;;14.29;58.00
78149;BME280;67396;42.664;23.382;2023-04-25T11:09:11;94030.13;;;14.32;57.03
78149;BME280;67396;42.664;23.382;2023-04-25T11:11:40;94024.63;;;14.32;57.75
78149;BME280;67396;42.664;23.382;2023-04-25T11:14:06;94018.22;;;14.35;57.86
78149;BME280;67396;42.664;23.382;2023-04-25T11:16:31;94022.09;;;14.38;57.45
78149;BME280;67396;42.664;23.382;2023-04-25T11:18:58;94020.84;;;14.42;58.60
78149;BME280;67396;42.664;23.382;2023-04-25T11:21:26;94021.63;;;14.59;59.65
78149;BME280;67396;42.664;23.382;2023-04-25T11:23:54;94026.19;;;14.65;58.68
78149;BME280;67396;42.664;23.382;2023-04-25T11:26:21;94015.13;;;14.65;58.54
78149;BME280;67396;42.664;23.382;2023-04-25T11:28:49;94024.88;;;14.54;59.09
78149;BME280;67396;42.664;23.382;2023-04-25T11:31:14;94028.97;;;14.49;59.55
78149;BME280;67396;42.664;23.382;2023-04-25T11:33:40;94024.81;;;14.57;58.60
78149;BME280;67396;42.664;23.382;2023-04-25T11:36:06;94017.53;;;14.63;58.49
78149;BME280;67396;42.664;23.382;2023-04-25T11:38:31;94014.19;;;14.56;58.95
78149;BME280;67396;42.664;23.382;2023-04-25T11:40:57;94007.34;;;14.28;58.80
78149;BME280;67396;42.664;23.382;2023-04-25T11:43:25;94008.31;;;14.38;57.39
78149;BME280;67396;42.664;23.382;2023-04-25T11:45:51;94016.78;;;14.47;57.03
78149;BME280;67396;42.664;23.382;2023-04-25T11:48:20;94018.09;;;14.42;56.87
78149;BME280;67396;42.664;23.382;2023-04-25T11:50:46;94021.28;;;14.41;58.58
78149;BME280;67396;42.664;23.382;2023-04-25T11:53:12;94021.44;;;14.34;60.26
78149;BME280;67396;42.664;23.382;2023-04-25T11:55:37;94022.88;;;14.38;62.65
78149;BME280;67396;42.664;23.382;2023-04-25T11:58:04;94026.69;;;14.44;64.09
78149;BME280;67396;42.664;23.382;2023-04-25T12:00:30;94018.38;;;14.12;64.17
78149;BME280;67396;42.664;23.382;2023-04-25T12:02:57;94012.34;;;14.17;59.87
78149;BME280;67396;42.664;23.382;2023-04-25T12:05:30;94004.41;;;14.03;58.85
78149;BME280;67396;42.664;23.382;2023-04-25T12:07:58;94003.69;;;13.82;60.26
78149;BME280;67396;42.664;23.382;2023-04-25T12:10:37;93997.75;;;13.48;63.25
78149;BME280;67396;42.664;23.382;2023-04-25T12:13:26;93997.28;;;13.13;61.67
78149;BME280;67396;42.664;23.382;2023-04-25T12:15:56;93994.31;;;13.04;65.77
78149;BME280;67396;42.664;23.382;2023-04-25T12:18:25;93996.13;;;13.11;64.17
78149;BME280;67396;42.664;23.382;2023-04-25T12:20:54;93999.75;;;13.08;65.71
78149;BME280;67396;42.664;23.382;2023-04-25T12:23:26;93984.25;;;13.17;63.08
78149;BME280;67396;42.664;23.382;2023-04-25T12:25:55;93981.81;;;13.19;64.57
78149;BME280;67396;42.664;23.382;2023-04-25T12:28:23;93984.19;;;13.37;63.20
78149;BME280;67396;42.664;23.382;2023-04-25T12:31:03;93983.25;;;13.28;60.61
78149;BME280;67396;42.664;23.382;2023-04-25T12:33:31;93978.94;;;13.27;61.59
78149;BME280;67396;42.664;23.382;2023-04-25T12:35:57;93985.72;;;13.22;62.61
78149;BME280;67396;42.664;23.382;2023-04-25T12:38:35;93997.84;;;13.44;62.53
78149;BME280;67396;42.664;23.382;2023-04-25T12:41:02;93997.72;;;13.68;63.32
78149;BME280;67396;42.664;23.382;2023-04-25T12:43:27;94028.31;;;13.73;62.08
78149;BME280;67396;42.664;23.382;2023-04-25T12:45:54;94046.19;;;12.66;64.90
78149;BME280;67396;42.664;23.382;2023-04-25T12:48:20;94050.38;;;12.01;67.75
78149;BME280;67396;42.664;23.382;2023-04-25T12:50:48;94050.50;;;11.94;71.21
78149;BME280;67396;42.664;23.382;2023-04-25T12:53:24;94068.13;;;11.66;72.46
78149;BME280;67396;42.664;23.382;2023-04-25T12:55:50;94064.59;;;11.35;72.24
78149;BME280;67396;42.664;23.382;2023-04-25T12:58:17;94055.75;;;11.20;73.29
78149;BME280;67396;42.664;23.382;2023-04-25T13:00:44;94055.34;;;11.22;72.87
78149;BME280;67396;42.664;23.382;2023-04-25T13:03:10;94069.19;;;11.45;72.80
78149;BME280;67396;42.664;23.382;2023-04-25T13:05:37;94058.47;;;11.24;73.45
78149;BME280;67396;42.664;23.382;2023-04-25T13:08:10;94054.44;;;11.32;74.20
78149;BME280;67396;42.664;23.382;2023-04-25T13:10:35;94072.19;;;11.54;74.90
78149;BME280;67396;42.664;23.382;2023-04-25T13:13:02;94063.41;;;11.66;75.87
78149;BME280;67396;42.664;23.382;2023-04-25T13:15:28;94063.91;;;11.88;74.26
78149;BME280;67396;42.664;23.382;2023-04-25T13:17:55;94059.97;;;11.89;74.70
78149;BME280;67396;42.664;23.382;2023-04-25T13:20:21;94062.31;;;11.91;75.01
78149;BME280;67396;42.664;23.382;2023-04-25T13:22:47;94063.66;;;12.06;73.91
78149;BME280;67396;42.664;23.382;2023-04-25T13:25:13;94059.66;;;12.11;73.88
78149;BME280;67396;42.664;23.382;2023-04-25T13:27:38;94070.13;;;11.96;74.42
78149;BME280;67396;42.664;23.382;2023-04-25T13:30:07;94066.38;;;12.10;73.19
78149;BME280;67396;42.664;23.382;2023-04-25T13:32:36;94065.88;;;12.15;72.86